Portada
METAR-TAF:

METAR-TAF

Aeropuertos :

Šiauliai, Lituania

latitud: 55-53-38N, longitud: 023-23-42E, altitud: 135 m

Observación

El informe se hizo hace 30 minutos, a las 02:50 UTC
Viento 7 kt del norte
Temperatura 7°C
Humedad 70%
Presión 1023 hPa
Visibilidad 10 km o más
sin nubes por debajo de 1500 m y sin presencia de cumulonimbus.

METAR: EYSA 010250Z 36007KT CAVOK 07/02 Q1023 BLU NOSIG

Hora: 06:20 (03:20 UTC)

Pronóstico

El informe se hizo hace 1 hora y 20 minutos, a las 02:00 UTC
Pronóstico válido del 01 a las 03 UTC al 01 a las 12 UTC
Viento 8 kt del norte
Visibilidad 10 km o más
sin nubes por debajo de 1500 m y sin presencia de cumulonimbus.
Temporalmente
del 01 a las 09 UTC al 01 a las 12 UTC
Viento 18 kt del norte

TAF: EYSA 010200Z 0103/0112 01008KT CAVOK TEMPO 0109/0112 01018KT

Observaciones y pronósticos meteorológicos de más de 4000 aeropuertos (mensajes METAR y TAF).

Los puntos amarillos y rojos representan las estaciones disponibles.

Ponga el ratón en el punto deseado para ver el nombre de la estación.

Haga clic para ver las observaciones y los pronósticos meteorológicos.

Para cambiar el mapa : haga clic en los botones verdes con una cruz de color negro para hacer un zoom, en el botón verde con un guión para alejar o en las flechas verdes para mapas adyacentes.


METAR-TAF: